Bear Creek, North Carolina
Current Conditions -  °F | °C
As of 12:35 AM on Thursday 27 Nov 2014 (Local Time) from K5W8 Reporting Station
Overcast Overcast  
Wind Chill: 38°   Ceiling: 3600
Heat Index: 38°   Visibility: 10mi
Dew Point: 38°   Wind: 0mph
Humidity: 100%   Direction: NA
Pressure: 30.05"   Gusts: NA
Location:  35.62°N, 79.38°W
Report Text: K5W8 270535Z AUTO 00000KT 10SM SCT026 BKN036 OVC042 03/03 A3005 RMK AO2 T00320032
Loading
Personal Weather Stations






























Interactive Weather Map New forecast layout! Learn more

10-Day Weather Forecast

Advertisements
Track Severe Weather on mobile